createdAt,value
2023-04-27T00:01:13.821Z,100.00
2023-04-27T00:03:41.916Z,100.00
2023-04-27T00:06:10.037Z,100.00
2023-04-27T00:08:37.114Z,100.00
2023-04-27T00:11:03.954Z,100.00
2023-04-27T00:13:30.728Z,100.00
2023-04-27T00:15:57.478Z,100.00
2023-04-27T00:18:24.179Z,100.00
2023-04-27T00:20:50.768Z,100.00
2023-04-27T00:23:17.471Z,100.00
2023-04-27T00:25:44.190Z,100.00
2023-04-27T00:28:10.766Z,100.00
2023-04-27T00:30:37.341Z,100.00
2023-04-27T00:33:04.101Z,100.00
2023-04-27T00:35:32.470Z,100.00
2023-04-27T00:37:59.313Z,100.00
2023-04-27T00:40:26.227Z,100.00
2023-04-27T00:42:52.832Z,100.00
2023-04-27T00:45:19.462Z,100.00
2023-04-27T00:47:46.381Z,100.00
2023-04-27T00:53:08.154Z,100.00
2023-04-27T00:55:34.795Z,100.00
2023-04-27T00:58:01.530Z,100.00
2023-04-27T01:00:28.410Z,100.00
2023-04-27T01:02:55.947Z,100.00
2023-04-27T01:05:25.632Z,100.00
2023-04-27T01:07:52.223Z,100.00
2023-04-27T01:10:18.817Z,100.00
2023-04-27T01:12:45.462Z,100.00
2023-04-27T01:15:12.001Z,100.00
2023-04-27T01:17:39.147Z,100.00
2023-04-27T01:20:07.745Z,100.00
2023-04-27T01:22:34.454Z,100.00
2023-04-27T01:25:01.299Z,100.00
2023-04-27T01:27:27.833Z,100.00
2023-04-27T01:29:54.340Z,100.00
2023-04-27T01:32:21.365Z,100.00
2023-04-27T01:34:47.975Z,100.00
2023-04-27T01:37:15.885Z,100.00
2023-04-27T01:39:42.498Z,100.00
2023-04-27T01:42:09.304Z,100.00
2023-04-27T01:44:35.944Z,100.00
2023-04-27T01:47:02.534Z,100.00
2023-04-27T01:49:29.092Z,100.00
2023-04-27T01:51:55.722Z,100.00
2023-04-27T01:54:22.357Z,100.00
2023-04-27T01:56:48.940Z,100.00
2023-04-27T01:59:15.692Z,100.00
2023-04-27T02:01:42.505Z,100.00
2023-04-27T02:04:09.246Z,100.00
2023-04-27T02:06:36.455Z,100.00
2023-04-27T02:09:03.059Z,100.00
2023-04-27T02:11:29.680Z,100.00
2023-04-27T02:13:56.276Z,100.00
2023-04-27T02:16:22.974Z,100.00
2023-04-27T02:18:50.515Z,100.00
2023-04-27T02:21:17.231Z,100.00
2023-04-27T02:23:43.860Z,100.00
2023-04-27T02:26:17.231Z,100.00
2023-04-27T02:28:43.791Z,100.00
2023-04-27T02:31:11.533Z,100.00
2023-04-27T02:33:38.113Z,100.00
2023-04-27T02:36:04.935Z,100.00
2023-04-27T02:38:31.587Z,100.00
2023-04-27T02:40:58.174Z,100.00
2023-04-27T02:43:24.964Z,100.00
2023-04-27T02:45:51.632Z,100.00
2023-04-27T02:48:18.376Z,100.00
2023-04-27T02:50:45.606Z,100.00
2023-04-27T02:53:12.590Z,100.00
2023-04-27T02:55:45.749Z,100.00
2023-04-27T02:58:13.484Z,100.00
2023-04-27T03:00:41.192Z,100.00
2023-04-27T03:03:08.334Z,100.00
2023-04-27T03:05:35.072Z,100.00
2023-04-27T03:08:01.760Z,100.00
2023-04-27T03:10:28.407Z,100.00
2023-04-27T03:12:54.988Z,100.00
2023-04-27T03:15:21.696Z,100.00
2023-04-27T03:17:48.350Z,100.00
2023-04-27T03:20:15.434Z,100.00
2023-04-27T03:22:41.998Z,100.00
2023-04-27T03:25:08.889Z,100.00
2023-04-27T03:27:35.623Z,100.00
2023-04-27T03:30:03.712Z,100.00
2023-04-27T03:32:30.448Z,100.00
2023-04-27T03:34:57.247Z,100.00
2023-04-27T03:37:23.853Z,100.00
2023-04-27T03:39:50.421Z,100.00
2023-04-27T03:42:17.045Z,100.00
2023-04-27T03:44:43.636Z,100.00
2023-04-27T03:47:10.679Z,100.00
2023-04-27T03:49:37.266Z,100.00
2023-04-27T03:52:04.135Z,100.00
2023-04-27T03:54:33.676Z,100.00
2023-04-27T03:57:00.276Z,100.00
2023-04-27T03:59:30.020Z,100.00
2023-04-27T04:01:59.528Z,100.00
2023-04-27T04:04:27.938Z,100.00
2023-04-27T04:06:54.726Z,100.00
2023-04-27T04:09:23.701Z,100.00
2023-04-27T04:11:52.146Z,100.00
2023-04-27T04:14:18.743Z,100.00
2023-04-27T04:16:45.297Z,100.00
2023-04-27T04:19:12.281Z,100.00
2023-04-27T04:21:38.933Z,100.00
2023-04-27T04:24:06.197Z,100.00
2023-04-27T04:26:33.720Z,100.00
2023-04-27T04:29:00.258Z,100.00
2023-04-27T04:31:27.838Z,100.00
2023-04-27T04:33:54.437Z,100.00
2023-04-27T04:36:20.993Z,100.00
2023-04-27T04:38:47.548Z,100.00
2023-04-27T04:41:14.287Z,100.00
2023-04-27T04:43:41.096Z,100.00
2023-04-27T04:46:07.826Z,100.00
2023-04-27T04:48:34.772Z,100.00
2023-04-27T04:51:01.399Z,100.00
2023-04-27T04:53:27.994Z,100.00
2023-04-27T04:55:54.673Z,100.00
2023-04-27T04:58:21.243Z,100.00
2023-04-27T05:00:47.820Z,100.00
2023-04-27T05:03:14.456Z,100.00
2023-04-27T05:05:41.256Z,100.00
2023-04-27T05:08:07.840Z,100.00
2023-04-27T05:10:34.414Z,100.00
2023-04-27T05:13:00.926Z,100.00
2023-04-27T05:15:27.531Z,100.00
2023-04-27T05:17:54.543Z,100.00
2023-04-27T05:20:21.539Z,100.00
2023-04-27T05:22:48.129Z,100.00
2023-04-27T05:25:14.750Z,100.00
2023-04-27T05:27:41.318Z,100.00
2023-04-27T05:30:08.433Z,100.00
2023-04-27T05:32:37.019Z,100.00
2023-04-27T05:35:05.196Z,100.00
2023-04-27T05:37:31.784Z,100.00
2023-04-27T05:39:58.472Z,100.00
2023-04-27T05:42:25.036Z,100.00
2023-04-27T05:44:51.622Z,100.00
2023-04-27T05:47:18.248Z,100.00
2023-04-27T05:49:44.836Z,100.00
2023-04-27T05:52:11.552Z,100.00
2023-04-27T05:54:38.095Z,100.00
2023-04-27T05:57:04.673Z,100.00
2023-04-27T05:59:31.259Z,100.00
2023-04-27T06:01:57.922Z,100.00
2023-04-27T06:04:24.783Z,100.00
2023-04-27T06:06:51.448Z,100.00
2023-04-27T06:09:18.055Z,100.00
2023-04-27T06:11:44.988Z,100.00
2023-04-27T06:14:11.536Z,100.00
2023-04-27T06:16:38.289Z,100.00
2023-04-27T06:19:05.036Z,100.00
2023-04-27T06:21:33.735Z,100.00
2023-04-27T06:24:01.265Z,100.00
2023-04-27T06:26:28.359Z,100.00
2023-04-27T06:28:56.273Z,100.00
2023-04-27T06:31:22.993Z,100.00
2023-04-27T06:33:49.690Z,100.00
2023-04-27T06:36:16.342Z,100.00
2023-04-27T06:38:43.250Z,100.00
2023-04-27T06:41:09.876Z,100.00
2023-04-27T06:43:36.482Z,100.00
2023-04-27T06:46:03.235Z,100.00
2023-04-27T06:48:29.874Z,100.00
2023-04-27T06:50:56.729Z,100.00
2023-04-27T06:53:23.311Z,100.00
2023-04-27T06:55:51.172Z,100.00
2023-04-27T06:58:17.759Z,100.00
2023-04-27T07:00:44.432Z,100.00
2023-04-27T07:03:11.438Z,100.00
2023-04-27T07:05:38.156Z,100.00
2023-04-27T07:08:08.274Z,100.00
2023-04-27T07:10:35.647Z,100.00
2023-04-27T07:13:02.400Z,100.00
2023-04-27T07:15:30.582Z,100.00
2023-04-27T07:17:59.581Z,100.00
2023-04-27T07:20:26.980Z,100.00
2023-04-27T07:22:53.515Z,100.00
2023-04-27T07:25:23.030Z,100.00
2023-04-27T07:27:49.687Z,100.00
2023-04-27T07:30:17.567Z,100.00
2023-04-27T07:32:44.366Z,100.00
2023-04-27T07:35:11.128Z,100.00
2023-04-27T07:37:38.458Z,100.00
2023-04-27T07:40:17.033Z,100.00
2023-04-27T07:42:43.714Z,96.28
2023-04-27T07:45:10.788Z,99.12
2023-04-27T07:47:38.279Z,100.00
2023-04-27T07:50:07.510Z,100.00
2023-04-27T07:52:34.267Z,97.22
2023-04-27T07:55:00.831Z,98.36
2023-04-27T07:57:27.564Z,99.17
2023-04-27T07:59:54.120Z,98.60
2023-04-27T08:02:20.759Z,100.00
2023-04-27T08:04:48.789Z,100.00
2023-04-27T08:07:17.651Z,100.00
2023-04-27T08:09:44.665Z,100.00
2023-04-27T08:12:11.462Z,100.00
2023-04-27T08:14:38.014Z,99.49
2023-04-27T08:17:04.761Z,98.55
2023-04-27T08:19:31.525Z,99.38
2023-04-27T08:21:58.147Z,96.54
2023-04-27T08:24:24.812Z,96.08
2023-04-27T08:26:51.501Z,93.49
2023-04-27T08:29:26.985Z,89.10
2023-04-27T08:31:56.866Z,89.71
2023-04-27T08:34:24.118Z,89.51
2023-04-27T08:36:50.863Z,90.50
2023-04-27T08:39:18.565Z,90.24
2023-04-27T08:41:45.440Z,88.00
2023-04-27T08:44:12.405Z,79.83
2023-04-27T08:46:39.459Z,77.16
2023-04-27T08:49:07.832Z,76.55
2023-04-27T08:51:34.988Z,79.68
2023-04-27T08:54:02.218Z,83.33
2023-04-27T08:56:29.781Z,80.17
2023-04-27T08:58:57.449Z,81.68
2023-04-27T09:01:26.272Z,76.96
2023-04-27T09:03:57.702Z,72.59
2023-04-27T09:06:35.664Z,74.88
2023-04-27T09:09:03.485Z,80.67
2023-04-27T09:11:35.473Z,79.50
2023-04-27T09:14:03.968Z,73.87
2023-04-27T09:16:31.379Z,72.47
2023-04-27T09:18:59.337Z,64.69
2023-04-27T09:21:28.271Z,64.88
2023-04-27T09:23:55.972Z,65.04
2023-04-27T09:26:27.448Z,61.73
2023-04-27T09:28:58.050Z,61.72
2023-04-27T09:31:35.537Z,61.69
2023-04-27T09:34:03.014Z,59.03
2023-04-27T09:36:32.456Z,54.73
2023-04-27T09:39:02.454Z,56.65
2023-04-27T09:41:29.637Z,58.47
2023-04-27T09:43:58.087Z,69.21
2023-04-27T09:46:26.068Z,73.18
2023-04-27T09:48:53.098Z,75.40
2023-04-27T09:51:19.631Z,68.59
2023-04-27T09:53:52.889Z,61.59
2023-04-27T09:56:51.265Z,60.91
2023-04-27T09:59:27.016Z,60.76
2023-04-27T10:02:07.219Z,58.41
2023-04-27T10:05:03.016Z,54.31
2023-04-27T10:07:31.554Z,55.60
2023-04-27T10:10:02.231Z,56.18
2023-04-27T10:12:36.372Z,52.06
2023-04-27T10:15:14.703Z,53.42
2023-04-27T10:17:49.179Z,58.43
2023-04-27T10:20:16.673Z,58.46
2023-04-27T10:22:50.313Z,54.11
2023-04-27T10:25:22.322Z,49.48
2023-04-27T10:27:54.813Z,50.71
2023-04-27T10:30:23.979Z,50.65
2023-04-27T10:32:55.189Z,47.96
2023-04-27T10:35:36.036Z,46.24
2023-04-27T10:38:06.414Z,47.29
2023-04-27T10:40:35.271Z,46.84
2023-04-27T10:43:13.050Z,53.43
2023-04-27T10:45:41.140Z,55.67
2023-04-27T10:48:08.264Z,54.77
2023-04-27T10:50:35.210Z,54.42
2023-04-27T10:53:07.687Z,53.17
2023-04-27T10:55:35.694Z,54.06
2023-04-27T10:58:03.869Z,51.43
2023-04-27T11:00:35.364Z,52.41
2023-04-27T11:03:12.707Z,48.75
2023-04-27T11:05:39.456Z,47.61
2023-04-27T11:08:07.154Z,48.82
2023-04-27T11:10:35.871Z,49.22
2023-04-27T11:13:11.543Z,52.08
2023-04-27T11:15:46.705Z,53.39
2023-04-27T11:18:13.971Z,51.92
2023-04-27T11:20:40.635Z,50.76
2023-04-27T11:23:08.116Z,50.79
2023-04-27T11:25:35.285Z,50.99
2023-04-27T11:28:01.856Z,50.67
2023-04-27T11:30:28.568Z,53.97
2023-04-27T11:32:55.319Z,52.45
2023-04-27T11:35:33.719Z,54.28
2023-04-27T11:38:00.433Z,53.38
2023-04-27T11:40:28.893Z,48.91
2023-04-27T11:42:59.498Z,47.66
2023-04-27T11:45:30.189Z,47.66
2023-04-27T11:47:59.957Z,49.28
2023-04-27T11:50:27.443Z,46.21
2023-04-27T11:52:54.154Z,50.34
2023-04-27T11:55:22.222Z,49.46
2023-04-27T11:57:49.209Z,50.27
2023-04-27T12:00:16.704Z,47.47
2023-04-27T12:02:44.434Z,45.43
2023-04-27T12:05:13.387Z,46.33
2023-04-27T12:07:41.354Z,45.37
2023-04-27T12:10:09.209Z,46.78
2023-04-27T12:12:36.235Z,47.80
2023-04-27T12:15:03.454Z,47.46
2023-04-27T12:17:30.259Z,47.64
2023-04-27T12:19:56.954Z,47.30
2023-04-27T12:22:23.613Z,45.86
2023-04-27T12:24:51.394Z,45.94
2023-04-27T12:27:18.086Z,45.42
2023-04-27T12:29:44.669Z,45.01
2023-04-27T12:32:11.506Z,46.79
2023-04-27T12:34:39.527Z,49.23
2023-04-27T12:37:06.737Z,51.16
2023-04-27T12:39:33.396Z,51.50
2023-04-27T12:42:00.071Z,52.66
2023-04-27T12:44:27.155Z,52.57
2023-04-27T12:46:54.111Z,55.72
2023-04-27T12:49:20.854Z,54.55
2023-04-27T12:51:48.160Z,54.99
2023-04-27T12:54:15.085Z,55.27
2023-04-27T12:56:42.465Z,53.99
2023-04-27T12:59:09.570Z,52.08
2023-04-27T13:01:36.399Z,51.47
2023-04-27T13:04:04.238Z,51.24
2023-04-27T13:06:34.738Z,52.18
2023-04-27T13:09:02.669Z,53.36
2023-04-27T13:11:29.670Z,55.13
2023-04-27T13:13:56.316Z,56.61
2023-04-27T13:16:25.656Z,58.09
2023-04-27T13:18:55.652Z,61.33
2023-04-27T13:21:22.609Z,65.34
2023-04-27T13:23:49.520Z,69.30
2023-04-27T13:26:16.611Z,72.27
2023-04-27T13:28:43.273Z,77.26
2023-04-27T13:31:10.371Z,85.22
2023-04-27T13:33:42.289Z,88.79
2023-04-27T13:36:10.441Z,92.60
2023-04-27T13:38:37.649Z,100.00
2023-04-27T13:41:05.268Z,98.10
2023-04-27T13:43:31.985Z,99.76
2023-04-27T13:46:01.082Z,97.77
2023-04-27T13:48:28.890Z,92.96
2023-04-27T13:50:56.140Z,88.09
2023-04-27T13:53:25.966Z,88.70
2023-04-27T13:55:57.340Z,85.78
2023-04-27T13:58:26.243Z,82.15
2023-04-27T14:00:53.926Z,83.57
2023-04-27T14:03:20.928Z,81.23
2023-04-27T14:05:49.161Z,75.43
2023-04-27T14:08:16.121Z,66.31
2023-04-27T14:10:43.200Z,61.75
2023-04-27T14:13:11.593Z,51.24
2023-04-27T14:15:38.214Z,39.20
2023-04-27T14:18:06.369Z,39.07
2023-04-27T14:20:34.566Z,36.67
2023-04-27T14:23:02.009Z,33.85
2023-04-27T14:25:32.903Z,31.15
2023-04-27T14:28:01.061Z,29.09
2023-04-27T14:30:27.922Z,28.15
2023-04-27T14:32:54.675Z,26.81
2023-04-27T14:35:21.539Z,25.44
2023-04-27T14:37:48.157Z,24.90
2023-04-27T14:40:15.147Z,26.27
2023-04-27T14:42:41.938Z,29.44
2023-04-27T14:45:09.306Z,30.91
2023-04-27T14:47:36.107Z,33.19
2023-04-27T14:50:03.632Z,35.18
2023-04-27T14:52:30.291Z,36.74
2023-04-27T14:54:57.141Z,39.09
2023-04-27T14:57:23.860Z,39.98
2023-04-27T14:59:50.505Z,42.36
2023-04-27T15:02:18.913Z,45.22
2023-04-27T15:04:45.990Z,49.70
2023-04-27T15:07:12.861Z,51.83
2023-04-27T15:09:39.464Z,51.21
2023-04-27T15:12:08.120Z,53.28
2023-04-27T15:14:34.729Z,56.54
2023-04-27T15:17:01.378Z,56.79
2023-04-27T15:19:28.076Z,54.82
2023-04-27T15:21:54.713Z,57.82
2023-04-27T15:24:21.422Z,60.25
2023-04-27T15:26:48.659Z,61.71
2023-04-27T15:29:15.489Z,64.85
2023-04-27T15:31:42.358Z,62.34
2023-04-27T15:34:08.937Z,61.64
2023-04-27T15:36:35.510Z,61.10
2023-04-27T15:39:02.091Z,62.96
2023-04-27T15:41:28.834Z,65.15
2023-04-27T15:43:55.618Z,65.17
2023-04-27T15:46:22.240Z,64.38
2023-04-27T15:48:48.857Z,65.33
2023-04-27T15:51:15.578Z,63.63
2023-04-27T15:53:42.273Z,68.06
2023-04-27T15:56:09.162Z,69.61
2023-04-27T15:58:36.017Z,70.17
2023-04-27T16:01:02.649Z,70.98
2023-04-27T16:03:29.387Z,74.98
2023-04-27T16:05:56.129Z,72.50
2023-04-27T16:08:22.859Z,74.74
2023-04-27T16:10:49.853Z,72.76
2023-04-27T16:13:17.172Z,74.18
2023-04-27T16:15:44.133Z,73.94
2023-04-27T16:18:11.481Z,68.54
2023-04-27T16:20:38.094Z,70.17
2023-04-27T16:23:04.734Z,67.81
2023-04-27T16:25:31.428Z,72.29
2023-04-27T16:27:59.139Z,70.15
2023-04-27T16:30:25.918Z,63.98
2023-04-27T16:32:53.038Z,64.44
2023-04-27T16:35:19.771Z,61.74
2023-04-27T16:37:46.504Z,63.49
2023-04-27T16:40:13.317Z,64.27
2023-04-27T16:42:39.939Z,67.71
2023-04-27T16:45:09.177Z,71.46
2023-04-27T16:47:37.349Z,70.30
2023-04-27T16:50:04.374Z,73.08
2023-04-27T16:52:31.227Z,75.25
2023-04-27T16:54:57.996Z,77.92
2023-04-27T16:57:24.743Z,76.34
2023-04-27T16:59:51.676Z,80.67
2023-04-27T17:02:25.328Z,78.71
2023-04-27T17:04:53.390Z,81.59
2023-04-27T17:07:19.997Z,82.96
2023-04-27T17:09:46.585Z,84.08
2023-04-27T17:12:14.918Z,85.04
2023-04-27T17:14:42.728Z,86.44
2023-04-27T17:17:10.627Z,87.31
2023-04-27T17:19:37.357Z,87.45
2023-04-27T17:22:04.703Z,87.04
2023-04-27T17:24:31.265Z,88.22
2023-04-27T17:26:57.877Z,87.61
2023-04-27T17:29:24.649Z,92.25
2023-04-27T17:31:51.359Z,93.28
2023-04-27T17:34:18.221Z,91.77
2023-04-27T17:36:46.069Z,93.65
2023-04-27T17:39:13.986Z,94.64
2023-04-27T17:41:41.110Z,95.75
2023-04-27T17:44:07.915Z,97.37
2023-04-27T17:46:34.636Z,98.31
2023-04-27T17:49:01.540Z,99.36
2023-04-27T17:51:28.194Z,100.00
2023-04-27T17:53:54.870Z,100.00
2023-04-27T17:56:21.512Z,100.00
2023-04-27T17:58:48.157Z,100.00
2023-04-27T18:01:14.832Z,100.00
2023-04-27T18:03:42.404Z,100.00
2023-04-27T18:06:11.616Z,100.00
2023-04-27T18:08:38.189Z,100.00
2023-04-27T18:11:04.862Z,100.00
2023-04-27T18:13:32.672Z,100.00
2023-04-27T18:15:59.933Z,100.00
2023-04-27T18:18:27.035Z,100.00
2023-04-27T18:20:53.885Z,100.00
2023-04-27T18:23:21.211Z,100.00
2023-04-27T18:25:49.386Z,100.00
2023-04-27T18:28:16.398Z,100.00
2023-04-27T18:30:42.918Z,100.00
2023-04-27T18:33:09.533Z,100.00
2023-04-27T18:35:36.211Z,100.00
2023-04-27T18:38:03.649Z,100.00
2023-04-27T18:40:30.575Z,100.00
2023-04-27T18:42:57.199Z,100.00
2023-04-27T18:45:23.939Z,100.00
2023-04-27T18:47:50.733Z,100.00
2023-04-27T18:50:17.659Z,100.00
2023-04-27T18:52:44.291Z,100.00
2023-04-27T18:55:11.424Z,100.00
2023-04-27T18:57:38.046Z,100.00
2023-04-27T19:00:05.952Z,100.00
2023-04-27T19:02:33.151Z,100.00
2023-04-27T19:05:11.014Z,100.00
2023-04-27T19:07:39.366Z,100.00
2023-04-27T19:10:06.831Z,100.00
2023-04-27T19:12:33.473Z,100.00
2023-04-27T19:15:00.063Z,100.00
2023-04-27T19:17:27.427Z,100.00
2023-04-27T19:19:54.514Z,100.00
2023-04-27T19:22:21.145Z,100.00
2023-04-27T19:24:48.172Z,100.00
2023-04-27T19:27:14.799Z,100.00
2023-04-27T19:29:52.702Z,100.00
2023-04-27T19:32:19.872Z,100.00
2023-04-27T19:34:47.340Z,100.00
2023-04-27T19:37:14.139Z,100.00
2023-04-27T19:39:40.743Z,100.00
2023-04-27T19:42:07.544Z,100.00
2023-04-27T19:44:34.171Z,100.00
2023-04-27T19:47:00.883Z,100.00
2023-04-27T19:49:31.114Z,100.00
2023-04-27T19:51:57.687Z,100.00
2023-04-27T19:54:24.229Z,100.00
2023-04-27T19:56:50.775Z,100.00
2023-04-27T19:59:17.377Z,100.00
2023-04-27T20:01:44.144Z,100.00
2023-04-27T20:04:11.166Z,100.00
2023-04-27T20:06:37.863Z,100.00
2023-04-27T20:09:04.601Z,100.00
2023-04-27T20:11:31.202Z,100.00
2023-04-27T20:13:57.775Z,100.00
2023-04-27T20:16:25.834Z,100.00
2023-04-27T20:18:53.020Z,100.00
2023-04-27T20:21:21.590Z,100.00
2023-04-27T20:23:48.979Z,100.00
2023-04-27T20:26:15.628Z,100.00
2023-04-27T20:28:42.806Z,100.00
2023-04-27T20:31:09.698Z,100.00
2023-04-27T20:33:36.464Z,100.00
2023-04-27T20:36:14.196Z,100.00
2023-04-27T20:38:46.190Z,100.00
2023-04-27T20:41:12.879Z,100.00
2023-04-27T20:43:40.323Z,100.00
2023-04-27T20:46:16.645Z,100.00
2023-04-27T20:48:43.457Z,100.00
2023-04-27T20:51:10.094Z,100.00
2023-04-27T20:53:36.996Z,100.00
2023-04-27T20:56:03.940Z,100.00
2023-04-27T20:58:30.567Z,100.00
2023-04-27T21:00:57.204Z,100.00
2023-04-27T21:03:24.087Z,100.00
2023-04-27T21:05:50.972Z,100.00
2023-04-27T21:08:17.558Z,100.00
2023-04-27T21:10:44.819Z,100.00
2023-04-27T21:13:11.414Z,100.00
2023-04-27T21:15:38.706Z,100.00
2023-04-27T21:18:09.377Z,100.00
2023-04-27T21:20:37.845Z,100.00
2023-04-27T21:23:05.587Z,100.00
2023-04-27T21:25:32.176Z,100.00
2023-04-27T21:27:59.232Z,100.00
2023-04-27T21:30:25.944Z,100.00
2023-04-27T21:32:52.594Z,100.00
2023-04-27T21:35:19.398Z,100.00
2023-04-27T21:37:46.144Z,100.00
2023-04-27T21:40:13.082Z,100.00
2023-04-27T21:42:39.615Z,100.00
2023-04-27T21:45:06.823Z,100.00
2023-04-27T21:47:33.482Z,100.00
2023-04-27T21:50:00.161Z,100.00
2023-04-27T21:52:26.754Z,100.00
2023-04-27T21:54:53.424Z,100.00
2023-04-27T21:57:20.272Z,100.00
2023-04-27T21:59:46.888Z,100.00
2023-04-27T22:02:13.723Z,100.00
2023-04-27T22:04:40.438Z,100.00
2023-04-27T22:07:10.530Z,100.00
2023-04-27T22:09:37.303Z,100.00
2023-04-27T22:12:04.410Z,100.00
2023-04-27T22:14:31.564Z,100.00
2023-04-27T22:17:00.912Z,100.00
2023-04-27T22:19:28.886Z,100.00
2023-04-27T22:21:55.624Z,100.00
2023-04-27T22:24:22.365Z,100.00
2023-04-27T22:26:49.045Z,100.00
2023-04-27T22:29:16.670Z,100.00
2023-04-27T22:31:44.576Z,100.00
2023-04-27T22:34:14.784Z,100.00
2023-04-27T22:36:41.602Z,100.00
2023-04-27T22:39:08.594Z,100.00
2023-04-27T22:41:35.328Z,100.00
2023-04-27T22:44:01.943Z,100.00
2023-04-27T22:46:28.485Z,100.00
2023-04-27T22:48:55.148Z,100.00
2023-04-27T22:51:21.915Z,100.00
2023-04-27T22:53:48.821Z,100.00
2023-04-27T22:56:15.405Z,100.00
2023-04-27T22:58:42.194Z,100.00
2023-04-27T23:01:08.964Z,100.00
2023-04-27T23:03:35.798Z,100.00
2023-04-27T23:06:02.445Z,100.00
2023-04-27T23:08:29.653Z,100.00
2023-04-27T23:10:56.962Z,100.00
2023-04-27T23:13:27.711Z,100.00
2023-04-27T23:15:54.607Z,100.00
2023-04-27T23:18:21.520Z,100.00
2023-04-27T23:20:53.699Z,100.00
2023-04-27T23:23:20.432Z,100.00
2023-04-27T23:25:47.081Z,100.00
2023-04-27T23:28:13.673Z,100.00
2023-04-27T23:30:40.428Z,100.00
2023-04-27T23:33:07.328Z,100.00
2023-04-27T23:35:34.048Z,100.00
2023-04-27T23:38:00.744Z,100.00
2023-04-27T23:40:27.348Z,100.00
2023-04-27T23:42:53.912Z,100.00
2023-04-27T23:45:21.078Z,100.00
2023-04-27T23:47:47.706Z,100.00
2023-04-27T23:50:14.376Z,100.00
2023-04-27T23:52:40.931Z,100.00
2023-04-27T23:55:08.011Z,100.00
2023-04-27T23:57:34.614Z,100.00
